Southwest Georgia Regional Airport
KABY : now visible

Airfield :











YOU CAN JOIN US ON...

 
LOGIN :

Register | Disclaimer

   EN    FR    IT 

 









Legend :    VFR   Marginal VFR   IFR   Intensive IFR   Very Intensive IFR
Visi :
Ceiling :
>= 8 km
>= 3000ft
5 to 8 km
1000 to 3000 ft
1500m to 5 km
500 to 1000 ft
800 to 1500m
200 to 500 ft
< 800m
< 200 ft
Symbols :   Thunderstorms  Fog  Heavy snow  Heavy precipitations  Wind > 20 kt






- Airport Elevation : 197 ft
- IATA code : ABY


KABY - Southwest Georgia Regional

CURRENT METAR :
  • 040718Z AUTO 00000KT 1 3/4SM BR BKN021 BKN036 18/17 A3024 RMK AO2 T01780167

EXPIRED METARs :
  • 040653Z AUTO 00000KT 6SM BR FEW020 OVC034 18/17 A3025 RMK AO2 SLP241 T01830167
  • 040650Z AUTO 00000KT 7SM SCT020 OVC034 18/17 A3025 RMK AO2
  • 040553Z AUTO 17003KT 8SM OVC017 18/17 A3026 RMK AO2 RAB0455E09 SLP247 P0000 60002 T01830167 10206 20183 58011
  • 040538Z AUTO 00000KT 9SM BKN017 OVC050 18/17 A3027 RMK AO2 RAB0455E09 P0000 T01830167
  • 040453Z AUTO 04004KT 10SM SCT017 BKN030 OVC043 18/17 A3028 RMK AO2 SLP253 T01830167 402560089
  • 040448Z AUTO 03004KT 9SM BKN017 BKN030 OVC060 18/17 A3029 RMK AO2
  • 040424Z AUTO 00000KT 9SM SCT023 OVC030 18/18 A3029 RMK AO2 T01830178

TAF KABY
Valid from the 04 at 06:00 until the 05 at 06:00 UTC


040540Z 0406/0506 02003KT P6SM VCSH SCT018 BKN025 OVC040
FM040800 02003KT 4SM BR SCT002 OVC004
TEMPO 0409/0412 3/4SM BR OVC002
FM041500 VRB03KT P6SM SCT005 BKN012 OVC020
FM041800 30005KT P6SM BKN020
FM042200 31005KT P6SM SCT020 OVC200
FM050500 09003KT 3SM BR SCT003 BKN035 OVC150
KZJX FIR / North America



MET'MAP, your aeronautical weather chart ! - Copyright ORBIFLY December 2007 - Disclaimer

ORBIFLY MET'MAP TEAM :

Programming & Development : Alexandra Zaïnal
Original concept : Baudouin d'Aumeries
Technical & hardware support : Manuel Goepfert
Assistance : Marc-Olivier Méhu




SOURCES & CREDITS :

   NOAA       Earth
Advisory